Shir Khan — RO4503 — position and weather

sailwx.info

Track history (hours):
 
Tides and Currents Weather Stations Pressure Air Temp Water Temp Dewpoint Dewpoint Depression Visibility Wind Speed Wind Dir Waves Ship Positions

Shir Khan

Last reported at 2017-Oct-15 12:27 UTC. Time now 2017-Oct-23 00:44 UTC.
Position N 44°31' E 022°12'.

Length 110 m; draft 0.2 m.

Type: Ship. MMSI: 211515160.

Date/timePositionNaut miles runAvg speedWind from/ knotsBaromVisibWave heightAir tempDewpointWater temp
2017-Oct-15 12:27N 44°31' E 022°12'3 7.2
2017-Oct-15 12:01N 44°28' E 022°10'4 7.2
2017-Oct-15 11:30N 44°30' E 022°05'4 7.6
2017-Oct-15 11:00N 44°33' E 022°02'16 6.8
2017-Oct-15 08:36N 44°40' E 021°41'1 7.4
2017-Oct-15 08:30N 44°40' E 021°41'6 7.6
2017-Oct-15 07:44N 44°45' E 021°36'2 7.9
2017-Oct-15 07:31N 44°46' E 021°34'17 2.2
2017-Oct-15 00:02N 44°45' E 021°10'0 7.6
2017-Oct-15 00:00N 44°45' E 021°10'5 7.3
2017-Oct-14 23:16N 44°43' E 021°03'2 7.5
2017-Oct-14 23:00N 44°43' E 021°01'5 7.4
2017-Oct-14 22:16N 44°40' E 020°54'3 7.6
2017-Oct-14 21:55N 44°39' E 020°51'6 7.2
2017-Oct-14 21:05N 44°42' E 020°43'3 7.2
2017-Oct-14 20:39N 44°44' E 020°40'1 6.5
2017-Oct-14 20:30N 44°45' E 020°39'3 6.1
2017-Oct-14 20:00N 44°47' E 020°38'3 6.7
2017-Oct-14 19:30N 44°51' E 020°38'3 6.7
2017-Oct-14 19:00N 44°51' E 020°33'3 7.0
2017-Oct-14 18:30N 44°50' E 020°29'4 7.6
2017-Oct-14 18:00N 44°51' E 020°24'4 7.4
2017-Oct-14 17:30N 44°54' E 020°21'4 7.8
2017-Oct-14 17:00N 44°58' E 020°17'3 6.5
2017-Oct-14 16:30N 45°00' E 020°20'3 6.6
2017-Oct-14 16:00N 45°03' E 020°21'4 8.0
2017-Oct-14 15:30N 45°07' E 020°18'4 8.3
2017-Oct-14 15:00N 45°10' E 020°14'5 7.5
2017-Oct-14 14:23N 45°10' E 020°08'4 7.9
2017-Oct-14 13:54N 45°10' E 020°02'4 7.7
2017-Oct-14 13:22N 45°12' E 019°57'5 0.7
2017-Oct-14 05:43N 45°16' E 019°52'5 3.1
2017-Oct-14 04:15N 45°14' E 019°46'2 6.5
2017-Oct-14 04:00N 45°14' E 019°44'7 6.3
2017-Oct-14 02:54N 45°13' E 019°34'4 5.1
2017-Oct-14 02:07N 45°14' E 019°28'1 7.2
2017-Oct-14 02:00N 45°14' E 019°27'4 7.2
2017-Oct-14 01:30N 45°14' E 019°22'4 7.2
2017-Oct-14 01:00N 45°14' E 019°17'4 6.9
2017-Oct-14 00:28N 45°16' E 019°12'3 7.4
2017-Oct-14 00:00N 45°17' E 019°08'4 7.5
2017-Oct-13 23:30N 45°20' E 019°05'4 7.5
2017-Oct-13 23:00N 45°22' E 019°00'3 4.9
2017-Oct-13 22:30N 45°24' E 019°00'2 4.6
2017-Oct-13 22:01N 45°26' E 018°60'4 7.1
2017-Oct-13 21:31N 45°30' E 019°00'4 7.2
2017-Oct-13 21:01N 45°30' E 019°05'3 5.0
2017-Oct-13 20:31N 45°32' E 019°04'1 1.1
2017-Oct-13 20:01N 45°32' E 019°05'0 0.0
2017-Oct-13 19:31N 45°32' E 019°05'0 0.0
2017-Oct-13 19:01N 45°32' E 019°05'0 0.0
2017-Oct-13 18:31N 45°32' E 019°05'0 0.0
2017-Oct-13 18:00N 45°32' E 019°05'0 0.0
2017-Oct-13 17:31N 45°32' E 019°05'0 0.0
2017-Oct-13 17:01N 45°32' E 019°05'0 0.0
2017-Oct-13 16:30N 45°32' E 019°05'0 0.0
2017-Oct-13 16:01N 45°32' E 019°05'0 0.0
2017-Oct-13 15:30N 45°32' E 019°05'0 0.0
2017-Oct-13 15:01N 45°32' E 019°05'0 0.0
2017-Oct-13 14:30N 45°32' E 019°05'0 0.0
2017-Oct-13 14:01N 45°32' E 019°05'0 0.0
2017-Oct-13 13:31N 45°32' E 019°05'0 0.0
2017-Oct-13 13:01N 45°32' E 019°05'0 0.0
2017-Oct-13 12:31N 45°32' E 019°05'0 0.0
2017-Oct-13 12:01N 45°32' E 019°05'0 0.0
2017-Oct-13 11:30N 45°32' E 019°05'0 0.0
2017-Oct-13 11:01N 45°32' E 019°05'0 0.0
2017-Oct-13 10:30N 45°32' E 019°05'0 0.0
2017-Oct-13 10:01N 45°32' E 019°05'0 0.0
2017-Oct-13 09:31N 45°32' E 019°05'0 0.0
2017-Oct-13 09:01N 45°32' E 019°05'0 0.0
2017-Oct-13 08:31N 45°32' E 019°05'0 0.0
2017-Oct-13 08:01N 45°32' E 019°05'0 0.0
2017-Oct-13 07:31N 45°32' E 019°05'0 0.0
2017-Oct-13 07:01N 45°32' E 019°05'0 0.0
2017-Oct-13 06:31N 45°32' E 019°05'0 0.0
2017-Oct-13 06:01N 45°32' E 019°05'0 0.0
2017-Oct-13 05:31N 45°32' E 019°05'0 0.0
2017-Oct-13 05:01N 45°32' E 019°05'0 0.0
2017-Oct-13 04:31N 45°32' E 019°05'0 0.0
2017-Oct-13 04:01N 45°32' E 019°05'0 0.0
2017-Oct-13 03:31N 45°32' E 019°05'0 0.0
2017-Oct-13 03:01N 45°32' E 019°05'0 0.0
2017-Oct-13 02:31N 45°32' E 019°05'0 0.0
2017-Oct-13 02:01N 45°32' E 019°05'0 0.0
2017-Oct-13 01:31N 45°32' E 019°05'0 0.0
2017-Oct-13 01:01N 45°32' E 019°05'0 0.0
2017-Oct-13 00:31N 45°32' E 019°05'0 0.0
2017-Oct-13 00:01N 45°32' E 019°05'0 0.0
2017-Oct-12 23:31N 45°32' E 019°05'0 0.0
2017-Oct-12 23:01N 45°32' E 019°05'0 0.0
2017-Oct-12 22:31N 45°32' E 019°05'0 0.0
2017-Oct-12 22:01N 45°32' E 019°05'0 0.0
2017-Oct-12 21:31N 45°32' E 019°05'0 0.1
2017-Oct-12 21:01N 45°32' E 019°05'0 0.1
2017-Oct-12 20:31N 45°32' E 019°05'0 0.0
2017-Oct-12 20:01N 45°32' E 019°05'0 0.0
2017-Oct-12 19:31N 45°32' E 019°05'0 0.0
2017-Oct-12 19:01N 45°32' E 019°05'0 0.0
2017-Oct-12 18:31N 45°32' E 019°05'0 0.0
2017-Oct-12 18:01N 45°32' E 019°05'0 0.0
2017-Oct-12 17:31N 45°32' E 019°05'0 0.0
2017-Oct-12 17:01N 45°32' E 019°05'0 0.0
2017-Oct-12 16:31N 45°32' E 019°05'0 0.0
2017-Oct-12 16:01N 45°32' E 019°05'0 0.0
2017-Oct-12 15:31N 45°32' E 019°05'0 0.0
2017-Oct-12 15:01N 45°32' E 019°05'0 0.0
2017-Oct-12 14:31N 45°32' E 019°05'0 0.0
2017-Oct-12 14:01N 45°32' E 019°05'0 0.0
2017-Oct-12 13:31N 45°32' E 019°05'0 0.0
2017-Oct-12 13:01N 45°32' E 019°05'0 0.0
2017-Oct-12 12:31N 45°32' E 019°05'0 0.0
2017-Oct-12 12:01N 45°32' E 019°05'0 0.0
2017-Oct-12 11:31N 45°32' E 019°05'0 0.0
2017-Oct-12 11:01N 45°32' E 019°05'0 0.0
2017-Oct-12 10:31N 45°32' E 019°05'0 0.0
2017-Oct-12 10:01N 45°32' E 019°05'0 0.0
2017-Oct-12 09:31N 45°32' E 019°05'0 0.0
2017-Oct-12 09:01N 45°32' E 019°05'0 0.0
2017-Oct-12 08:31N 45°32' E 019°05'0 0.0
2017-Oct-12 08:01N 45°32' E 019°05'0 0.0
2017-Oct-12 07:31N 45°32' E 019°05'0 0.0
2017-Oct-12 07:01N 45°32' E 019°05'0 0.0
2017-Oct-12 06:31N 45°32' E 019°05'0 0.0
2017-Oct-12 06:01N 45°32' E 019°05'0 0.0
2017-Oct-12 05:31N 45°32' E 019°05'0 0.0
2017-Oct-12 05:01N 45°32' E 019°05'0 0.0
2017-Oct-12 04:31N 45°32' E 019°05'0 0.0
2017-Oct-12 04:01N 45°32' E 019°05'0 0.0
2017-Oct-12 03:31N 45°32' E 019°05'0 0.0
2017-Oct-12 03:01N 45°32' E 019°05'0 0.0
2017-Oct-12 02:31N 45°32' E 019°05'0 0.0
2017-Oct-12 02:01N 45°32' E 019°05'0 0.0
2017-Oct-12 01:31N 45°32' E 019°05'0 0.0
2017-Oct-12 01:01N 45°32' E 019°05'0 0.0
2017-Oct-12 00:31N 45°32' E 019°05'0 0.0
2017-Oct-12 00:01N 45°32' E 019°05'0 0.0
2017-Oct-11 23:31N 45°32' E 019°05'0 0.0
2017-Oct-11 23:01N 45°32' E 019°05'0 0.0
2017-Oct-11 22:31N 45°32' E 019°05'0 0.0
2017-Oct-11 22:01N 45°32' E 019°05'0 0.0
2017-Oct-11 21:31N 45°32' E 019°05'0 0.0
2017-Oct-11 21:01N 45°32' E 019°05'0 0.0
2017-Oct-11 20:31N 45°32' E 019°05'0 0.0
2017-Oct-11 20:01N 45°32' E 019°05'0 0.0
2017-Oct-11 19:31N 45°32' E 019°05'0 0.1
2017-Oct-11 19:01N 45°32' E 019°05'0 0.1
2017-Oct-11 18:31N 45°32' E 019°05'0 0.0
2017-Oct-11 18:01N 45°32' E 019°05'0 0.0
2017-Oct-11 17:31N 45°32' E 019°05'0 0.8
2017-Oct-11 17:01N 45°32' E 019°04'0 0.0
2017-Oct-11 00:01N 45°32' E 019°04'0 0.0
2017-Oct-10 23:31N 45°32' E 019°04'0 0.0
2017-Oct-10 23:01N 45°32' E 019°04'0 0.0
2017-Oct-10 22:31N 45°32' E 019°04'0 0.0
2017-Oct-10 22:01N 45°32' E 019°04'0 0.0
2017-Oct-10 21:31N 45°32' E 019°04'0 0.0
2017-Oct-10 21:01N 45°32' E 019°04'0 0.0
2017-Oct-10 20:31N 45°32' E 019°04'0 0.0
2017-Oct-10 20:01N 45°32' E 019°04'0 0.0
2017-Oct-10 19:31N 45°32' E 019°04'0 0.0
2017-Oct-10 19:01N 45°32' E 019°04'0 0.0
2017-Oct-10 18:31N 45°32' E 019°04'0 0.0
2017-Oct-10 18:01N 45°32' E 019°04'0 0.0
2017-Oct-10 17:31N 45°32' E 019°04'0 0.0
2017-Oct-10 17:01N 45°32' E 019°04'0 0.0
2017-Oct-10 16:31N 45°32' E 019°04'0 0.0
2017-Oct-10 16:01N 45°32' E 019°04'0 0.0
2017-Oct-10 15:31N 45°32' E 019°04'0 0.0
2017-Oct-10 15:01N 45°32' E 019°04'0 0.0
2017-Oct-10 14:01N 45°32' E 019°04'0 0.0
2017-Oct-10 13:31N 45°32' E 019°04'0 0.0
2017-Oct-10 13:01N 45°32' E 019°04'0 0.0
2017-Oct-10 12:31N 45°32' E 019°04'0 0.0
2017-Oct-10 12:01N 45°32' E 019°04'0 0.0
2017-Oct-10 11:31N 45°32' E 019°04'0 0.0
2017-Oct-10 11:01N 45°32' E 019°04'0 0.0
2017-Oct-10 10:31N 45°32' E 019°04'0 0.0
2017-Oct-10 10:01N 45°32' E 019°04'0 0.0
2017-Oct-10 09:31N 45°32' E 019°04'0 0.0
2017-Oct-10 09:01N 45°32' E 019°04'0 0.0
2017-Oct-10 08:31N 45°32' E 019°04'0 0.0
2017-Oct-10 08:01N 45°32' E 019°04'0 0.0
2017-Oct-10 07:31N 45°32' E 019°04'0 0.0
2017-Oct-10 07:01N 45°32' E 019°04'0 0.0
2017-Oct-10 06:31N 45°32' E 019°04'0 0.0
2017-Oct-10 06:01N 45°32' E 019°04'0 0.0
2017-Oct-10 05:31N 45°32' E 019°04'0 0.0
2017-Oct-10 05:01N 45°32' E 019°04'0 0.0
2017-Oct-10 04:31N 45°32' E 019°04'0 0.0
2017-Oct-10 04:01N 45°32' E 019°04'0 0.0
2017-Oct-10 03:31N 45°32' E 019°04'0 0.0
2017-Oct-10 03:01N 45°32' E 019°04'0 0.0
2017-Oct-10 02:31N 45°32' E 019°04'0 0.0
2017-Oct-10 02:01N 45°32' E 019°04'0 0.0
2017-Oct-10 01:31N 45°32' E 019°04'0 0.0
2017-Oct-10 01:01N 45°32' E 019°04'0 0.0
2017-Oct-10 00:31N 45°32' E 019°04'0 0.0
2017-Oct-10 00:01N 45°32' E 019°04'0 0.0
2017-Oct-09 23:31N 45°32' E 019°04'0 0.0
2017-Oct-09 23:01N 45°32' E 019°04'0 0.0
2017-Oct-09 22:31N 45°32' E 019°04'0 0.0
2017-Oct-09 22:01N 45°32' E 019°04'0 0.0
2017-Oct-09 21:31N 45°32' E 019°04'0 0.0
2017-Oct-09 21:01N 45°32' E 019°04'0 0.0
2017-Oct-09 20:31N 45°32' E 019°04'0 0.0
2017-Oct-09 20:01N 45°32' E 019°04'0 0.0
2017-Oct-09 19:31N 45°32' E 019°04'0 0.0
2017-Oct-09 19:01N 45°32' E 019°04'0 0.0
2017-Oct-09 18:31N 45°32' E 019°04'0 0.0
2017-Oct-09 18:01N 45°32' E 019°04'0 0.0
2017-Oct-09 17:31N 45°32' E 019°04'0 0.0
2017-Oct-09 17:01N 45°32' E 019°04'0 0.0
2017-Oct-09 16:31N 45°32' E 019°04'0 0.0
2017-Oct-09 16:01N 45°32' E 019°04'0 0.0
2017-Oct-09 15:31N 45°32' E 019°04'0 0.0
2017-Oct-09 15:01N 45°32' E 019°04'0 0.0
2017-Oct-09 14:31N 45°32' E 019°04'0 0.0
2017-Oct-09 14:01N 45°32' E 019°04'0 0.0
2017-Oct-09 13:31N 45°32' E 019°04'0 0.0
2017-Oct-09 13:01N 45°32' E 019°04'0 0.0
2017-Oct-09 12:31N 45°32' E 019°04'0 0.0
2017-Oct-09 12:01N 45°32' E 019°04'0 0.0
2017-Oct-09 11:31N 45°32' E 019°04'0 0.0
2017-Oct-09 11:01N 45°32' E 019°04'0 0.0
2017-Oct-09 10:31N 45°32' E 019°04'0 0.0
2017-Oct-09 10:01N 45°32' E 019°04'0 0.0
2017-Oct-09 09:31N 45°32' E 019°04'0 0.0
2017-Oct-09 09:01N 45°32' E 019°04'0 0.0
2017-Oct-09 08:31N 45°32' E 019°04'0 0.0
2017-Oct-09 08:01N 45°32' E 019°04'0 0.0
2017-Oct-09 07:31N 45°32' E 019°04'0 0.0
2017-Oct-09 07:01N 45°32' E 019°04'0 0.0
2017-Oct-09 06:31N 45°32' E 019°04'0 0.0
2017-Oct-09 06:01N 45°32' E 019°04'0 0.0
2017-Oct-09 05:31N 45°32' E 019°04'0 0.0
2017-Oct-09 05:01N 45°32' E 019°04'0 0.0
2017-Oct-09 04:31N 45°32' E 019°04'0 0.0
2017-Oct-09 04:01N 45°32' E 019°04'0 0.0
2017-Oct-09 03:31N 45°32' E 019°04'0 0.0
2017-Oct-09 03:01N 45°32' E 019°04'0 0.0
2017-Oct-09 02:31N 45°32' E 019°04'0 0.0
2017-Oct-09 02:01N 45°32' E 019°04'0 0.0
2017-Oct-09 01:31N 45°32' E 019°04'0 0.0
2017-Oct-09 01:01N 45°32' E 019°04'0 0.0
2017-Oct-09 00:31N 45°32' E 019°04'0 0.0
2017-Oct-09 00:01N 45°32' E 019°04'0 0.0
2017-Oct-08 23:31N 45°32' E 019°04'0 0.0
2017-Oct-08 23:01N 45°32' E 019°04'0 0.0
2017-Oct-08 22:31N 45°32' E 019°04'0 0.0
2017-Oct-08 22:01N 45°32' E 019°04'0 0.0
2017-Oct-08 21:31N 45°32' E 019°04'0 0.0
2017-Oct-08 21:01N 45°32' E 019°04'0 0.0
2017-Oct-08 20:30N 45°32' E 019°04'0 0.0
2017-Oct-08 20:00N 45°32' E 019°04'0 0.0
2017-Oct-08 19:30N 45°32' E 019°04'0 0.0
2017-Oct-08 19:01N 45°32' E 019°04'0 0.0
2017-Oct-08 18:31N 45°32' E 019°04'0 0.0
2017-Oct-08 18:01N 45°32' E 019°04'0 0.0
2017-Oct-08 17:31N 45°32' E 019°04'0 0.0
2017-Oct-08 17:01N 45°32' E 019°04'0 0.0
2017-Oct-08 16:31N 45°32' E 019°04'0 0.0
2017-Oct-08 16:01N 45°32' E 019°04'0 0.0
2017-Oct-08 15:31N 45°32' E 019°04'0 0.0
2017-Oct-08 15:01N 45°32' E 019°04'0 0.0
2017-Oct-08 14:31N 45°32' E 019°04'0 0.0
2017-Oct-08 14:01N 45°32' E 019°04'0 0.0
2017-Oct-08 13:31N 45°32' E 019°04'0 0.0
2017-Oct-08 13:01N 45°32' E 019°04'0 0.0
2017-Oct-08 12:31N 45°32' E 019°04'0 0.0
2017-Oct-08 12:01N 45°32' E 019°04'0 0.0
2017-Oct-08 11:31N 45°32' E 019°04'0 0.0
2017-Oct-08 11:01N 45°32' E 019°04'0 0.0
2017-Oct-08 10:31N 45°32' E 019°04'0 0.0
2017-Oct-08 10:01N 45°32' E 019°04'0 0.0
2017-Oct-08 09:31N 45°32' E 019°04'0 0.0
2017-Oct-08 09:01N 45°32' E 019°04'0 0.0
2017-Oct-08 08:31N 45°32' E 019°04'0 0.0
2017-Oct-08 08:01N 45°32' E 019°04'0 0.0
2017-Oct-08 07:31N 45°32' E 019°04'0 0.0
2017-Oct-08 07:01N 45°32' E 019°04'0 0.0
2017-Oct-08 06:31N 45°32' E 019°04'0 0.0
2017-Oct-08 06:01N 45°32' E 019°04'0 0.0
2017-Oct-08 05:31N 45°32' E 019°04'0 0.0
2017-Oct-08 05:01N 45°32' E 019°04'0 0.0
2017-Oct-08 04:31N 45°32' E 019°04'0 0.0
2017-Oct-08 04:01N 45°32' E 019°04'0 0.0
2017-Oct-08 03:31N 45°32' E 019°04'0 0.0
2017-Oct-08 03:01N 45°32' E 019°04'0 0.0
2017-Oct-08 02:31N 45°32' E 019°04'0 0.0
2017-Oct-08 02:01N 45°32' E 019°04'0 0.0
2017-Oct-08 01:31N 45°32' E 019°04'0 0.0
2017-Oct-08 01:01N 45°32' E 019°04'0 0.0
2017-Oct-08 00:31N 45°32' E 019°04'0 0.0
2017-Oct-08 00:01N 45°32' E 019°04'0 0.0
2017-Oct-07 23:31N 45°32' E 019°04'0 0.0
2017-Oct-07 23:01N 45°32' E 019°04'0 0.0
2017-Oct-07 22:31N 45°32' E 019°04'0 0.0
2017-Oct-07 22:01N 45°32' E 019°04'0 0.0
2017-Oct-07 21:31N 45°32' E 019°04'0 0.0
2017-Oct-07 21:01N 45°32' E 019°04'0 0.0
2017-Oct-07 20:31N 45°32' E 019°04'0 0.0
2017-Oct-07 20:01N 45°32' E 019°04'0 0.0
2017-Oct-07 19:31N 45°32' E 019°04'0 0.0
2017-Oct-07 19:01N 45°32' E 019°04'0 0.0
2017-Oct-07 18:30N 45°32' E 019°04'0 0.0
2017-Oct-07 18:01N 45°32' E 019°04'0 0.0
2017-Oct-07 17:31N 45°32' E 019°04'0 0.0
2017-Oct-07 17:01N 45°32' E 019°04'0 0.0
2017-Oct-07 16:31N 45°32' E 019°04'0 0.0
2017-Oct-07 16:01N 45°32' E 019°04'0 0.0
2017-Oct-07 15:31N 45°32' E 019°04'0 0.0
2017-Oct-07 15:01N 45°32' E 019°04'0 0.0
2017-Oct-07 14:31N 45°32' E 019°04'0 0.0
2017-Oct-07 14:01N 45°32' E 019°04'0 0.0
2017-Oct-07 13:31N 45°32' E 019°04'0 0.0
2017-Oct-07 13:01N 45°32' E 019°04'0 0.0
2017-Oct-07 12:31N 45°32' E 019°04'0 0.0
2017-Oct-07 11:56N 45°32' E 019°04'0 0.0
2017-Oct-07 11:31N 45°32' E 019°04'0 0.0
2017-Oct-07 11:01N 45°32' E 019°04'0 0.0
2017-Oct-07 10:31N 45°32' E 019°04'1 1.0
2017-Oct-07 10:01N 45°32' E 019°05'2 3.2
2017-Oct-07 09:31N 45°30' E 019°06'2 3.6
2017-Oct-07 09:01N 45°29' E 019°04'2 4.0
2017-Oct-07 08:31N 45°29' E 019°01'1 3.0
2017-Oct-07 08:01N 45°29' E 018°59'2 3.4
2017-Oct-07 07:31N 45°27' E 018°59'2 3.8
2017-Oct-07 07:01N 45°26' E 019°01'2 3.2
2017-Oct-07 06:31N 45°24' E 019°01'2 3.9
2017-Oct-07 06:00N 45°24' E 018°59'2 3.4
2017-Oct-07 05:30N 45°22' E 018°59'2 3.9
2017-Oct-07 05:01N 45°21' E 019°01'2 4.0
2017-Oct-07 04:29N 45°21' E 019°04'2 3.6
2017-Oct-07 04:00N 45°20' E 019°06'2 3.8
2017-Oct-07 03:30N 45°18' E 019°07'2 3.9
2017-Oct-07 03:00N 45°17' E 019°09'2 3.9
2017-Oct-07 02:27N 45°16' E 019°12'4 3.6
2017-Oct-07 01:17N 45°14' E 019°17'1 4.1
2017-Oct-07 01:00N 45°14' E 019°19'2 4.0
2017-Oct-07 00:29N 45°14' E 019°22'2 4.0
2017-Oct-07 00:00N 45°14' E 019°25'11 3.2
2017-Oct-06 20:38N 45°13' E 019°40'1 3.9
2017-Oct-06 20:27N 45°14' E 019°41'2 3.9
2017-Oct-06 20:00N 45°14' E 019°43'2 4.0
2017-Oct-06 19:30N 45°14' E 019°46'5 2.6
2017-Oct-06 17:41N 45°16' E 019°52'2 3.5
2017-Oct-06 17:12N 45°15' E 019°54'1 4.2
2017-Oct-06 17:00N 45°15' E 019°55'2 4.2
2017-Oct-06 16:30N 45°13' E 019°56'2 4.3
2017-Oct-06 15:58N 45°11' E 019°58'2 4.4
2017-Oct-06 15:30N 45°11' E 020°01'3 3.9
2017-Oct-06 14:38N 45°10' E 020°06'1 3.8
2017-Oct-06 14:30N 45°10' E 020°07'2 3.8
2017-Oct-06 13:54N 45°11' E 020°10'2 3.9
2017-Oct-06 13:30N 45°11' E 020°12'2 3.7
2017-Oct-06 13:00N 45°10' E 020°14'2 3.7
2017-Oct-06 12:30N 45°09' E 020°16'2 3.9
2017-Oct-06 12:00N 45°07' E 020°17'2 3.9
2017-Oct-06 11:30N 45°05' E 020°19'2 3.9
2017-Oct-06 11:00N 45°04' E 020°21'2 4.2
2017-Oct-06 10:30N 45°02' E 020°22'2 3.3
2017-Oct-06 10:00N 45°00' E 020°21'2 4.0
2017-Oct-06 09:30N 44°60' E 020°18'2 3.9
2017-Oct-06 09:00N 44°58' E 020°17'2 3.8
2017-Oct-06 08:30N 44°56' E 020°19'2 4.1
2017-Oct-06 08:00N 44°55' E 020°20'2 4.3
2017-Oct-06 07:30N 44°53' E 020°22'2 4.0
2017-Oct-06 07:00N 44°51' E 020°24'2 4.2
2017-Oct-06 06:30N 44°50' E 020°27'2 4.3
2017-Oct-06 06:01N 44°50' E 020°30'2 4.6
2017-Oct-06 05:31N 44°50' E 020°33'2 4.5
2017-Oct-06 05:01N 44°51' E 020°36'2 4.2
2017-Oct-06 04:30N 44°50' E 020°38'2 3.9
2017-Oct-06 04:00N 44°48' E 020°38'2 4.5
2017-Oct-06 03:30N 44°46' E 020°38'2 4.1
2017-Oct-06 03:01N 44°45' E 020°39'3 4.3
2017-Oct-06 02:16N 44°42' E 020°42'3 4.5
2017-Oct-06 01:36N 44°40' E 020°45'1 4.4
2017-Oct-06 01:17N 44°40' E 020°47'2 4.3
2017-Oct-06 00:47N 44°39' E 020°50'1 4.4
2017-Oct-06 00:30N 44°40' E 020°52'3 4.5
2017-Oct-05 23:51N 44°41' E 020°56'2 4.7
2017-Oct-05 23:30N 44°42' E 020°57'1 2.5
2017-Oct-05 23:00N 44°43' E 020°59'2 4.3
2017-Oct-05 22:30N 44°43' E 021°02'6 4.9
2017-Oct-05 21:13N 44°45' E 021°10'1 4.7
2017-Oct-05 21:00N 44°46' E 021°11'3 5.1
2017-Oct-05 20:30N 44°47' E 021°14'3 5.4
2017-Oct-05 19:58N 44°48' E 021°18'4 4.5
2017-Oct-05 19:04N 44°48' E 021°23'0 5.4
2017-Oct-05 18:58N 44°47' E 021°23'2 4.6
2017-Oct-05 18:30N 44°46' E 021°26'3 5.1
2017-Oct-05 18:00N 44°46' E 021°30'1 1.6
2017-Oct-05 17:30N 44°46' E 021°31'0 0.0
2017-Oct-05 14:59N 44°46' E 021°31'0 0.6
2017-Oct-05 14:30N 44°46' E 021°31'  
Track history (hours):
 
Tides and Currents Weather Stations Pressure Air Temp Water Temp Dewpoint Dewpoint Depression Visibility Wind Speed Wind Dir Waves Ship Positions

Shir Khan

Last reported at 2017-Oct-15 12:27 UTC. Time now 2017-Oct-23 00:44 UTC.
Position N 44°31' E 022°12'.

Length 110 m; draft 0.2 m.

Type: Ship. MMSI: 211515160.

Date/timePositionNaut miles runAvg speedWind from/ knotsBaromVisibWave heightAir tempDewpointWater temp
2017-Oct-15 12:27N 44°31' E 022°12'3 7.2
2017-Oct-15 12:01N 44°28' E 022°10'4 7.2
2017-Oct-15 11:30N 44°30' E 022°05'4 7.6
2017-Oct-15 11:00N 44°33' E 022°02'16 6.8
2017-Oct-15 08:36N 44°40' E 021°41'1 7.4
2017-Oct-15 08:30N 44°40' E 021°41'6 7.6
2017-Oct-15 07:44N 44°45' E 021°36'2 7.9
2017-Oct-15 07:31N 44°46' E 021°34'17 2.2
2017-Oct-15 00:02N 44°45' E 021°10'0 7.6
2017-Oct-15 00:00N 44°45' E 021°10'5 7.3
2017-Oct-14 23:16N 44°43' E 021°03'2 7.5
2017-Oct-14 23:00N 44°43' E 021°01'5 7.4
2017-Oct-14 22:16N 44°40' E 020°54'3 7.6
2017-Oct-14 21:55N 44°39' E 020°51'6 7.2
2017-Oct-14 21:05N 44°42' E 020°43'3 7.2
2017-Oct-14 20:39N 44°44' E 020°40'1 6.5
2017-Oct-14 20:30N 44°45' E 020°39'3 6.1
2017-Oct-14 20:00N 44°47' E 020°38'3 6.7
2017-Oct-14 19:30N 44°51' E 020°38'3 6.7
2017-Oct-14 19:00N 44°51' E 020°33'3 7.0
2017-Oct-14 18:30N 44°50' E 020°29'4 7.6
2017-Oct-14 18:00N 44°51' E 020°24'4 7.4
2017-Oct-14 17:30N 44°54' E 020°21'4 7.8
2017-Oct-14 17:00N 44°58' E 020°17'3 6.5
2017-Oct-14 16:30N 45°00' E 020°20'3 6.6
2017-Oct-14 16:00N 45°03' E 020°21'4 8.0
2017-Oct-14 15:30N 45°07' E 020°18'4 8.3
2017-Oct-14 15:00N 45°10' E 020°14'5 7.5
2017-Oct-14 14:23N 45°10' E 020°08'4 7.9
2017-Oct-14 13:54N 45°10' E 020°02'4 7.7
2017-Oct-14 13:22N 45°12' E 019°57'5 0.7
2017-Oct-14 05:43N 45°16' E 019°52'5 3.1
2017-Oct-14 04:15N 45°14' E 019°46'2 6.5
2017-Oct-14 04:00N 45°14' E 019°44'7 6.3
2017-Oct-14 02:54N 45°13' E 019°34'4 5.1
2017-Oct-14 02:07N 45°14' E 019°28'1 7.2
2017-Oct-14 02:00N 45°14' E 019°27'4 7.2
2017-Oct-14 01:30N 45°14' E 019°22'4 7.2
2017-Oct-14 01:00N 45°14' E 019°17'4 6.9
2017-Oct-14 00:28N 45°16' E 019°12'3 7.4
2017-Oct-14 00:00N 45°17' E 019°08'4 7.5
2017-Oct-13 23:30N 45°20' E 019°05'4 7.5
2017-Oct-13 23:00N 45°22' E 019°00'3 4.9
2017-Oct-13 22:30N 45°24' E 019°00'2 4.6
2017-Oct-13 22:01N 45°26' E 018°60'4 7.1
2017-Oct-13 21:31N 45°30' E 019°00'4 7.2
2017-Oct-13 21:01N 45°30' E 019°05'3 5.0
2017-Oct-13 20:31N 45°32' E 019°04'1 1.1
2017-Oct-13 20:01N 45°32' E 019°05'0 0.0
2017-Oct-13 19:31N 45°32' E 019°05'0 0.0
2017-Oct-13 19:01N 45°32' E 019°05'0 0.0
2017-Oct-13 18:31N 45°32' E 019°05'0 0.0
2017-Oct-13 18:00N 45°32' E 019°05'0 0.0
2017-Oct-13 17:31N 45°32' E 019°05'0 0.0
2017-Oct-13 17:01N 45°32' E 019°05'0 0.0
2017-Oct-13 16:30N 45°32' E 019°05'0 0.0
2017-Oct-13 16:01N 45°32' E 019°05'0 0.0
2017-Oct-13 15:30N 45°32' E 019°05'0 0.0
2017-Oct-13 15:01N 45°32' E 019°05'0 0.0
2017-Oct-13 14:30N 45°32' E 019°05'0 0.0
2017-Oct-13 14:01N 45°32' E 019°05'0 0.0
2017-Oct-13 13:31N 45°32' E 019°05'0 0.0
2017-Oct-13 13:01N 45°32' E 019°05'0 0.0
2017-Oct-13 12:31N 45°32' E 019°05'0 0.0
2017-Oct-13 12:01N 45°32' E 019°05'0 0.0
2017-Oct-13 11:30N 45°32' E 019°05'0 0.0
2017-Oct-13 11:01N 45°32' E 019°05'0 0.0
2017-Oct-13 10:30N 45°32' E 019°05'0 0.0
2017-Oct-13 10:01N 45°32' E 019°05'0 0.0
2017-Oct-13 09:31N 45°32' E 019°05'0 0.0
2017-Oct-13 09:01N 45°32' E 019°05'0 0.0
2017-Oct-13 08:31N 45°32' E 019°05'0 0.0
2017-Oct-13 08:01N 45°32' E 019°05'0 0.0
2017-Oct-13 07:31N 45°32' E 019°05'0 0.0
2017-Oct-13 07:01N 45°32' E 019°05'0 0.0
2017-Oct-13 06:31N 45°32' E 019°05'0 0.0
2017-Oct-13 06:01N 45°32' E 019°05'0 0.0
2017-Oct-13 05:31N 45°32' E 019°05'0 0.0
2017-Oct-13 05:01N 45°32' E 019°05'0 0.0
2017-Oct-13 04:31N 45°32' E 019°05'0 0.0
2017-Oct-13 04:01N 45°32' E 019°05'0 0.0
2017-Oct-13 03:31N 45°32' E 019°05'0 0.0
2017-Oct-13 03:01N 45°32' E 019°05'0 0.0
2017-Oct-13 02:31N 45°32' E 019°05'0 0.0
2017-Oct-13 02:01N 45°32' E 019°05'0 0.0
2017-Oct-13 01:31N 45°32' E 019°05'0 0.0
2017-Oct-13 01:01N 45°32' E 019°05'0 0.0
2017-Oct-13 00:31N 45°32' E 019°05'0 0.0
2017-Oct-13 00:01N 45°32' E 019°05'0 0.0
2017-Oct-12 23:31N 45°32' E 019°05'0 0.0
2017-Oct-12 23:01N 45°32' E 019°05'0 0.0
2017-Oct-12 22:31N 45°32' E 019°05'0 0.0
2017-Oct-12 22:01N 45°32' E 019°05'0 0.0
2017-Oct-12 21:31N 45°32' E 019°05'0 0.1
2017-Oct-12 21:01N 45°32' E 019°05'0 0.1
2017-Oct-12 20:31N 45°32' E 019°05'0 0.0
2017-Oct-12 20:01N 45°32' E 019°05'0 0.0
2017-Oct-12 19:31N 45°32' E 019°05'0 0.0
2017-Oct-12 19:01N 45°32' E 019°05'0 0.0
2017-Oct-12 18:31N 45°32' E 019°05'0 0.0
2017-Oct-12 18:01N 45°32' E 019°05'0 0.0
2017-Oct-12 17:31N 45°32' E 019°05'0 0.0
2017-Oct-12 17:01N 45°32' E 019°05'0 0.0
2017-Oct-12 16:31N 45°32' E 019°05'0 0.0
2017-Oct-12 16:01N 45°32' E 019°05'0 0.0
2017-Oct-12 15:31N 45°32' E 019°05'0 0.0
2017-Oct-12 15:01N 45°32' E 019°05'0 0.0
2017-Oct-12 14:31N 45°32' E 019°05'0 0.0
2017-Oct-12 14:01N 45°32' E 019°05'0 0.0
2017-Oct-12 13:31N 45°32' E 019°05'0 0.0
2017-Oct-12 13:01N 45°32' E 019°05'0 0.0
2017-Oct-12 12:31N 45°32' E 019°05'0 0.0
2017-Oct-12 12:01N 45°32' E 019°05'0 0.0
2017-Oct-12 11:31N 45°32' E 019°05'0 0.0
2017-Oct-12 11:01N 45°32' E 019°05'0 0.0
2017-Oct-12 10:31N 45°32' E 019°05'0 0.0
2017-Oct-12 10:01N 45°32' E 019°05'0 0.0
2017-Oct-12 09:31N 45°32' E 019°05'0 0.0
2017-Oct-12 09:01N 45°32' E 019°05'0 0.0
2017-Oct-12 08:31N 45°32' E 019°05'0 0.0
2017-Oct-12 08:01N 45°32' E 019°05'0 0.0
2017-Oct-12 07:31N 45°32' E 019°05'0 0.0
2017-Oct-12 07:01N 45°32' E 019°05'0 0.0
2017-Oct-12 06:31N 45°32' E 019°05'0 0.0
2017-Oct-12 06:01N 45°32' E 019°05'0 0.0
2017-Oct-12 05:31N 45°32' E 019°05'0 0.0
2017-Oct-12 05:01N 45°32' E 019°05'0 0.0
2017-Oct-12 04:31N 45°32' E 019°05'0 0.0
2017-Oct-12 04:01N 45°32' E 019°05'0 0.0
2017-Oct-12 03:31N 45°32' E 019°05'0 0.0
2017-Oct-12 03:01N 45°32' E 019°05'0 0.0
2017-Oct-12 02:31N 45°32' E 019°05'0 0.0
2017-Oct-12 02:01N 45°32' E 019°05'0 0.0
2017-Oct-12 01:31N 45°32' E 019°05'0 0.0
2017-Oct-12 01:01N 45°32' E 019°05'0 0.0
2017-Oct-12 00:31N 45°32' E 019°05'0 0.0
2017-Oct-12 00:01N 45°32' E 019°05'0 0.0
2017-Oct-11 23:31N 45°32' E 019°05'0 0.0
2017-Oct-11 23:01N 45°32' E 019°05'0 0.0
2017-Oct-11 22:31N 45°32' E 019°05'0 0.0
2017-Oct-11 22:01N 45°32' E 019°05'0 0.0
2017-Oct-11 21:31N 45°32' E 019°05'0 0.0
2017-Oct-11 21:01N 45°32' E 019°05'0 0.0
2017-Oct-11 20:31N 45°32' E 019°05'0 0.0
2017-Oct-11 20:01N 45°32' E 019°05'0 0.0
2017-Oct-11 19:31N 45°32' E 019°05'0 0.1
2017-Oct-11 19:01N 45°32' E 019°05'0 0.1
2017-Oct-11 18:31N 45°32' E 019°05'0 0.0
2017-Oct-11 18:01N 45°32' E 019°05'0 0.0
2017-Oct-11 17:31N 45°32' E 019°05'0 0.8
2017-Oct-11 17:01N 45°32' E 019°04'0 0.0
2017-Oct-11 00:01N 45°32' E 019°04'0 0.0
2017-Oct-10 23:31N 45°32' E 019°04'0 0.0
2017-Oct-10 23:01N 45°32' E 019°04'0 0.0
2017-Oct-10 22:31N 45°32' E 019°04'0 0.0
2017-Oct-10 22:01N 45°32' E 019°04'0 0.0
2017-Oct-10 21:31N 45°32' E 019°04'0 0.0
2017-Oct-10 21:01N 45°32' E 019°04'0 0.0
2017-Oct-10 20:31N 45°32' E 019°04'0 0.0
2017-Oct-10 20:01N 45°32' E 019°04'0 0.0
2017-Oct-10 19:31N 45°32' E 019°04'0 0.0
2017-Oct-10 19:01N 45°32' E 019°04'0 0.0
2017-Oct-10 18:31N 45°32' E 019°04'0 0.0
2017-Oct-10 18:01N 45°32' E 019°04'0 0.0
2017-Oct-10 17:31N 45°32' E 019°04'0 0.0
2017-Oct-10 17:01N 45°32' E 019°04'0 0.0
2017-Oct-10 16:31N 45°32' E 019°04'0 0.0
2017-Oct-10 16:01N 45°32' E 019°04'0 0.0
2017-Oct-10 15:31N 45°32' E 019°04'0 0.0
2017-Oct-10 15:01N 45°32' E 019°04'0 0.0
2017-Oct-10 14:01N 45°32' E 019°04'0 0.0
2017-Oct-10 13:31N 45°32' E 019°04'0 0.0
2017-Oct-10 13:01N 45°32' E 019°04'0 0.0
2017-Oct-10 12:31N 45°32' E 019°04'0 0.0
2017-Oct-10 12:01N 45°32' E 019°04'0 0.0
2017-Oct-10 11:31N 45°32' E 019°04'0 0.0
2017-Oct-10 11:01N 45°32' E 019°04'0 0.0
2017-Oct-10 10:31N 45°32' E 019°04'0 0.0
2017-Oct-10 10:01N 45°32' E 019°04'0 0.0
2017-Oct-10 09:31N 45°32' E 019°04'0 0.0
2017-Oct-10 09:01N 45°32' E 019°04'0 0.0
2017-Oct-10 08:31N 45°32' E 019°04'0 0.0
2017-Oct-10 08:01N 45°32' E 019°04'0 0.0
2017-Oct-10 07:31N 45°32' E 019°04'0 0.0
2017-Oct-10 07:01N 45°32' E 019°04'0 0.0
2017-Oct-10 06:31N 45°32' E 019°04'0 0.0
2017-Oct-10 06:01N 45°32' E 019°04'0 0.0
2017-Oct-10 05:31N 45°32' E 019°04'0 0.0
2017-Oct-10 05:01N 45°32' E 019°04'0 0.0
2017-Oct-10 04:31N 45°32' E 019°04'0 0.0
2017-Oct-10 04:01N 45°32' E 019°04'0 0.0
2017-Oct-10 03:31N 45°32' E 019°04'0 0.0
2017-Oct-10 03:01N 45°32' E 019°04'0 0.0
2017-Oct-10 02:31N 45°32' E 019°04'0 0.0
2017-Oct-10 02:01N 45°32' E 019°04'0 0.0
2017-Oct-10 01:31N 45°32' E 019°04'0 0.0
2017-Oct-10 01:01N 45°32' E 019°04'0 0.0
2017-Oct-10 00:31N 45°32' E 019°04'0 0.0
2017-Oct-10 00:01N 45°32' E 019°04'0 0.0
2017-Oct-09 23:31N 45°32' E 019°04'0 0.0
2017-Oct-09 23:01N 45°32' E 019°04'0 0.0
2017-Oct-09 22:31N 45°32' E 019°04'0 0.0
2017-Oct-09 22:01N 45°32' E 019°04'0 0.0
2017-Oct-09 21:31N 45°32' E 019°04'0 0.0
2017-Oct-09 21:01N 45°32' E 019°04'0 0.0
2017-Oct-09 20:31N 45°32' E 019°04'0 0.0
2017-Oct-09 20:01N 45°32' E 019°04'0 0.0
2017-Oct-09 19:31N 45°32' E 019°04'0 0.0
2017-Oct-09 19:01N 45°32' E 019°04'0 0.0
2017-Oct-09 18:31N 45°32' E 019°04'0 0.0
2017-Oct-09 18:01N 45°32' E 019°04'0 0.0
2017-Oct-09 17:31N 45°32' E 019°04'0 0.0
2017-Oct-09 17:01N 45°32' E 019°04'0 0.0
2017-Oct-09 16:31N 45°32' E 019°04'0 0.0
2017-Oct-09 16:01N 45°32' E 019°04'0 0.0
2017-Oct-09 15:31N 45°32' E 019°04'0 0.0
2017-Oct-09 15:01N 45°32' E 019°04'0 0.0
2017-Oct-09 14:31N 45°32' E 019°04'0 0.0
2017-Oct-09 14:01N 45°32' E 019°04'0 0.0
2017-Oct-09 13:31N 45°32' E 019°04'0 0.0
2017-Oct-09 13:01N 45°32' E 019°04'0 0.0
2017-Oct-09 12:31N 45°32' E 019°04'0 0.0
2017-Oct-09 12:01N 45°32' E 019°04'0 0.0
2017-Oct-09 11:31N 45°32' E 019°04'0 0.0
2017-Oct-09 11:01N 45°32' E 019°04'0 0.0
2017-Oct-09 10:31N 45°32' E 019°04'0 0.0
2017-Oct-09 10:01N 45°32' E 019°04'0 0.0
2017-Oct-09 09:31N 45°32' E 019°04'0 0.0
2017-Oct-09 09:01N 45°32' E 019°04'0 0.0
2017-Oct-09 08:31N 45°32' E 019°04'0 0.0
2017-Oct-09 08:01N 45°32' E 019°04'0 0.0
2017-Oct-09 07:31N 45°32' E 019°04'0 0.0
2017-Oct-09 07:01N 45°32' E 019°04'0 0.0
2017-Oct-09 06:31N 45°32' E 019°04'0 0.0
2017-Oct-09 06:01N 45°32' E 019°04'0 0.0
2017-Oct-09 05:31N 45°32' E 019°04'0 0.0
2017-Oct-09 05:01N 45°32' E 019°04'0 0.0
2017-Oct-09 04:31N 45°32' E 019°04'0 0.0
2017-Oct-09 04:01N 45°32' E 019°04'0 0.0
2017-Oct-09 03:31N 45°32' E 019°04'0 0.0
2017-Oct-09 03:01N 45°32' E 019°04'0 0.0
2017-Oct-09 02:31N 45°32' E 019°04'0 0.0
2017-Oct-09 02:01N 45°32' E 019°04'0 0.0
2017-Oct-09 01:31N 45°32' E 019°04'0 0.0
2017-Oct-09 01:01N 45°32' E 019°04'0 0.0
2017-Oct-09 00:31N 45°32' E 019°04'0 0.0
2017-Oct-09 00:01N 45°32' E 019°04'0 0.0
2017-Oct-08 23:31N 45°32' E 019°04'0 0.0
2017-Oct-08 23:01N 45°32' E 019°04'0 0.0
2017-Oct-08 22:31N 45°32' E 019°04'0 0.0
2017-Oct-08 22:01N 45°32' E 019°04'0 0.0
2017-Oct-08 21:31N 45°32' E 019°04'0 0.0
2017-Oct-08 21:01N 45°32' E 019°04'0 0.0
2017-Oct-08 20:30N 45°32' E 019°04'0 0.0
2017-Oct-08 20:00N 45°32' E 019°04'0 0.0
2017-Oct-08 19:30N 45°32' E 019°04'0 0.0
2017-Oct-08 19:01N 45°32' E 019°04'0 0.0
2017-Oct-08 18:31N 45°32' E 019°04'0 0.0
2017-Oct-08 18:01N 45°32' E 019°04'0 0.0
2017-Oct-08 17:31N 45°32' E 019°04'0 0.0
2017-Oct-08 17:01N 45°32' E 019°04'0 0.0
2017-Oct-08 16:31N 45°32' E 019°04'0 0.0
2017-Oct-08 16:01N 45°32' E 019°04'0 0.0
2017-Oct-08 15:31N 45°32' E 019°04'0 0.0
2017-Oct-08 15:01N 45°32' E 019°04'0 0.0
2017-Oct-08 14:31N 45°32' E 019°04'0 0.0
2017-Oct-08 14:01N 45°32' E 019°04'0 0.0
2017-Oct-08 13:31N 45°32' E 019°04'0 0.0
2017-Oct-08 13:01N 45°32' E 019°04'0 0.0
2017-Oct-08 12:31N 45°32' E 019°04'0 0.0
2017-Oct-08 12:01N 45°32' E 019°04'0 0.0
2017-Oct-08 11:31N 45°32' E 019°04'0 0.0
2017-Oct-08 11:01N 45°32' E 019°04'0 0.0
2017-Oct-08 10:31N 45°32' E 019°04'0 0.0
2017-Oct-08 10:01N 45°32' E 019°04'0 0.0
2017-Oct-08 09:31N 45°32' E 019°04'0 0.0
2017-Oct-08 09:01N 45°32' E 019°04'0 0.0
2017-Oct-08 08:31N 45°32' E 019°04'0 0.0
2017-Oct-08 08:01N 45°32' E 019°04'0 0.0
2017-Oct-08 07:31N 45°32' E 019°04'0 0.0
2017-Oct-08 07:01N 45°32' E 019°04'0 0.0
2017-Oct-08 06:31N 45°32' E 019°04'0 0.0
2017-Oct-08 06:01N 45°32' E 019°04'0 0.0
2017-Oct-08 05:31N 45°32' E 019°04'0 0.0
2017-Oct-08 05:01N 45°32' E 019°04'0 0.0
2017-Oct-08 04:31N 45°32' E 019°04'0 0.0
2017-Oct-08 04:01N 45°32' E 019°04'0 0.0
2017-Oct-08 03:31N 45°32' E 019°04'0 0.0
2017-Oct-08 03:01N 45°32' E 019°04'0 0.0
2017-Oct-08 02:31N 45°32' E 019°04'0 0.0
2017-Oct-08 02:01N 45°32' E 019°04'0 0.0
2017-Oct-08 01:31N 45°32' E 019°04'0 0.0
2017-Oct-08 01:01N 45°32' E 019°04'0 0.0
2017-Oct-08 00:31N 45°32' E 019°04'0 0.0
2017-Oct-08 00:01N 45°32' E 019°04'0 0.0
2017-Oct-07 23:31N 45°32' E 019°04'0 0.0
2017-Oct-07 23:01N 45°32' E 019°04'0 0.0
2017-Oct-07 22:31N 45°32' E 019°04'0 0.0
2017-Oct-07 22:01N 45°32' E 019°04'0 0.0
2017-Oct-07 21:31N 45°32' E 019°04'0 0.0
2017-Oct-07 21:01N 45°32' E 019°04'0 0.0
2017-Oct-07 20:31N 45°32' E 019°04'0 0.0
2017-Oct-07 20:01N 45°32' E 019°04'0 0.0
2017-Oct-07 19:31N 45°32' E 019°04'0 0.0
2017-Oct-07 19:01N 45°32' E 019°04'0 0.0
2017-Oct-07 18:30N 45°32' E 019°04'0 0.0
2017-Oct-07 18:01N 45°32' E 019°04'0 0.0
2017-Oct-07 17:31N 45°32' E 019°04'0 0.0
2017-Oct-07 17:01N 45°32' E 019°04'0 0.0
2017-Oct-07 16:31N 45°32' E 019°04'0 0.0
2017-Oct-07 16:01N 45°32' E 019°04'0 0.0
2017-Oct-07 15:31N 45°32' E 019°04'0 0.0
2017-Oct-07 15:01N 45°32' E 019°04'0 0.0
2017-Oct-07 14:31N 45°32' E 019°04'0 0.0
2017-Oct-07 14:01N 45°32' E 019°04'0 0.0
2017-Oct-07 13:31N 45°32' E 019°04'0 0.0
2017-Oct-07 13:01N 45°32' E 019°04'0 0.0
2017-Oct-07 12:31N 45°32' E 019°04'0 0.0
2017-Oct-07 11:56N 45°32' E 019°04'0 0.0
2017-Oct-07 11:31N 45°32' E 019°04'0 0.0
2017-Oct-07 11:01N 45°32' E 019°04'0 0.0
2017-Oct-07 10:31N 45°32' E 019°04'1 1.0
2017-Oct-07 10:01N 45°32' E 019°05'2 3.2
2017-Oct-07 09:31N 45°30' E 019°06'2 3.6
2017-Oct-07 09:01N 45°29' E 019°04'2 4.0
2017-Oct-07 08:31N 45°29' E 019°01'1 3.0
2017-Oct-07 08:01N 45°29' E 018°59'2 3.4
2017-Oct-07 07:31N 45°27' E 018°59'2 3.8
2017-Oct-07 07:01N 45°26' E 019°01'2 3.2
2017-Oct-07 06:31N 45°24' E 019°01'2 3.9
2017-Oct-07 06:00N 45°24' E 018°59'2 3.4
2017-Oct-07 05:30N 45°22' E 018°59'2 3.9
2017-Oct-07 05:01N 45°21' E 019°01'2 4.0
2017-Oct-07 04:29N 45°21' E 019°04'2 3.6
2017-Oct-07 04:00N 45°20' E 019°06'2 3.8
2017-Oct-07 03:30N 45°18' E 019°07'2 3.9
2017-Oct-07 03:00N 45°17' E 019°09'2 3.9
2017-Oct-07 02:27N 45°16' E 019°12'4 3.6
2017-Oct-07 01:17N 45°14' E 019°17'1 4.1
2017-Oct-07 01:00N 45°14' E 019°19'2 4.0
2017-Oct-07 00:29N 45°14' E 019°22'2 4.0
2017-Oct-07 00:00N 45°14' E 019°25'11 3.2
2017-Oct-06 20:38N 45°13' E 019°40'1 3.9
2017-Oct-06 20:27N 45°14' E 019°41'2 3.9
2017-Oct-06 20:00N 45°14' E 019°43'2 4.0
2017-Oct-06 19:30N 45°14' E 019°46'5 2.6
2017-Oct-06 17:41N 45°16' E 019°52'2 3.5
2017-Oct-06 17:12N 45°15' E 019°54'1 4.2
2017-Oct-06 17:00N 45°15' E 019°55'2 4.2
2017-Oct-06 16:30N 45°13' E 019°56'2 4.3
2017-Oct-06 15:58N 45°11' E 019°58'2 4.4
2017-Oct-06 15:30N 45°11' E 020°01'3 3.9
2017-Oct-06 14:38N 45°10' E 020°06'1 3.8
2017-Oct-06 14:30N 45°10' E 020°07'2 3.8
2017-Oct-06 13:54N 45°11' E 020°10'2 3.9
2017-Oct-06 13:30N 45°11' E 020°12'2 3.7
2017-Oct-06 13:00N 45°10' E 020°14'2 3.7
2017-Oct-06 12:30N 45°09' E 020°16'2 3.9
2017-Oct-06 12:00N 45°07' E 020°17'2 3.9
2017-Oct-06 11:30N 45°05' E 020°19'2 3.9
2017-Oct-06 11:00N 45°04' E 020°21'2 4.2
2017-Oct-06 10:30N 45°02' E 020°22'2 3.3
2017-Oct-06 10:00N 45°00' E 020°21'2 4.0
2017-Oct-06 09:30N 44°60' E 020°18'2 3.9
2017-Oct-06 09:00N 44°58' E 020°17'2 3.8
2017-Oct-06 08:30N 44°56' E 020°19'2 4.1
2017-Oct-06 08:00N 44°55' E 020°20'2 4.3
2017-Oct-06 07:30N 44°53' E 020°22'2 4.0
2017-Oct-06 07:00N 44°51' E 020°24'2 4.2
2017-Oct-06 06:30N 44°50' E 020°27'2 4.3
2017-Oct-06 06:01N 44°50' E 020°30'2 4.6
2017-Oct-06 05:31N 44°50' E 020°33'2 4.5
2017-Oct-06 05:01N 44°51' E 020°36'2 4.2
2017-Oct-06 04:30N 44°50' E 020°38'2 3.9
2017-Oct-06 04:00N 44°48' E 020°38'2 4.5
2017-Oct-06 03:30N 44°46' E 020°38'2 4.1
2017-Oct-06 03:01N 44°45' E 020°39'3 4.3
2017-Oct-06 02:16N 44°42' E 020°42'3 4.5
2017-Oct-06 01:36N 44°40' E 020°45'1 4.4
2017-Oct-06 01:17N 44°40' E 020°47'2 4.3
2017-Oct-06 00:47N 44°39' E 020°50'1 4.4
2017-Oct-06 00:30N 44°40' E 020°52'3 4.5
2017-Oct-05 23:51N 44°41' E 020°56'2 4.7
2017-Oct-05 23:30N 44°42' E 020°57'1 2.5
2017-Oct-05 23:00N 44°43' E 020°59'2 4.3
2017-Oct-05 22:30N 44°43' E 021°02'6 4.9
2017-Oct-05 21:13N 44°45' E 021°10'1 4.7
2017-Oct-05 21:00N 44°46' E 021°11'3 5.1
2017-Oct-05 20:30N 44°47' E 021°14'3 5.4
2017-Oct-05 19:58N 44°48' E 021°18'4 4.5
2017-Oct-05 19:04N 44°48' E 021°23'0 5.4
2017-Oct-05 18:58N 44°47' E 021°23'2 4.6
2017-Oct-05 18:30N 44°46' E 021°26'3 5.1
2017-Oct-05 18:00N 44°46' E 021°30'1 1.6
2017-Oct-05 17:30N 44°46' E 021°31'0 0.0
2017-Oct-05 14:59N 44°46' E 021°31'0 0.6
2017-Oct-05 14:30N 44°46' E 021°31'  

Dump ship's entire track history